CW5652 Two Harbors CA US current weather conditions

sailwx.info

Wind from 271

Air temperature 9.4° C
Dewpoint 5.4° C

Last reported at 2020-Jan-17 18:02 UTC.
Time now 2020-Jan-17 18:34 UTC

Location: N 37°17' W 003°40'.
View on Google Maps.

See reports from other nearby stations

  
Tides and Currents Weather Stations Pressure Air Temp Water Temp Dewpoint Dewpoint Depression Visibility Wind Speed Wind Dir Waves Ship Positions
date/time (UTC)wind fromknots sea level pressurealtimeterstation pressurevisibilityair tempwater tempwave heightnotes
2020-Jan-17 18:02 271 9.4
2020-Jan-17 17:57 271 9.4
2020-Jan-17 17:52 271 10.0
2020-Jan-17 17:47 271 10.0
2020-Jan-17 17:42 271 10.6
2020-Jan-17 17:37 271 10.6
2020-Jan-17 17:32 271 11.1
2020-Jan-17 17:27 271 11.1
2020-Jan-17 17:22 271 11.7
2020-Jan-17 17:17 271 11.7
2020-Jan-17 17:12 271 0 gusting 2 12.2
2020-Jan-17 17:07 271 2 gusting 5 12.2
2020-Jan-17 17:02 270 2 gusting 4 12.2
2020-Jan-17 16:57 258 1 gusting 4 12.2
2020-Jan-17 16:52 257 1 gusting 4 12.2
2020-Jan-17 16:47 257 2 gusting 5 12.2
2020-Jan-17 16:42 255 2 gusting 4 12.8
2020-Jan-17 16:37 252 1 gusting 5 12.8
2020-Jan-17 16:32 251 1 gusting 4 12.8
2020-Jan-17 16:27 252 2 gusting 4 12.8
2020-Jan-17 16:22 252 1 gusting 4 12.8
2020-Jan-17 16:17 250 1 gusting 2 12.8
2020-Jan-17 16:12 250 1 gusting 2 12.8
2020-Jan-17 16:07 250 1 gusting 2 13.3
2020-Jan-17 16:02 250 1 gusting 2 13.3
2020-Jan-17 15:57 250 1 gusting 2 13.3
2020-Jan-17 15:52 250 1 gusting 4 13.3
2020-Jan-17 15:47 250 0 gusting 2 13.3
2020-Jan-17 15:42 261 1 gusting 2 13.3
2020-Jan-17 15:37 261 1 gusting 4 13.9
2020-Jan-17 15:32 273 1 gusting 2 13.3
2020-Jan-17 15:27 273 0 gusting 4 13.3
2020-Jan-17 15:22 273 1 gusting 4 13.3
2020-Jan-17 15:17 273 2 gusting 4 13.3
2020-Jan-17 15:12 277 1 gusting 4 13.3
2020-Jan-17 15:07 278 1 gusting 5 13.3
2020-Jan-17 15:02 249 1 gusting 4 13.3
2020-Jan-17 14:57 212 3 gusting 6 13.9
2020-Jan-17 14:52 216 2 gusting 6 13.3
2020-Jan-17 14:47 246 2 gusting 5 13.3
2020-Jan-17 14:42 246 2 gusting 4 13.3
2020-Jan-17 14:37 248 3 gusting 6 13.3
2020-Jan-17 14:32 250 2 gusting 6 13.3
2020-Jan-17 14:27 242 2 gusting 5 13.3
2020-Jan-17 14:22 258 2 gusting 5 13.3
2020-Jan-17 14:17 254 2 gusting 5 13.3
2020-Jan-17 14:12 247 3 gusting 6 13.3
2020-Jan-17 14:07 266 4 gusting 6 13.3
2020-Jan-17 14:02 241 4 gusting 6 13.3
2020-Jan-17 13:57 290 5 gusting 7 13.9
2020-Jan-17 13:52 223 1 gusting 6 13.9
2020-Jan-17 13:47 195 3 gusting 6 13.9
2020-Jan-17 13:42 196 4 gusting 6 14.4
2020-Jan-17 13:37 183 0 gusting 5 14.4
2020-Jan-17 13:32 183 0 gusting 2 14.4
2020-Jan-17 13:27 184 0 gusting 4 13.9
2020-Jan-17 13:22 185 0 gusting 2 13.9
2020-Jan-17 13:17 185 3 gusting 6 13.9
2020-Jan-17 13:12 156 1 gusting 2 13.9
2020-Jan-17 13:07 155 2 gusting 4 13.9
2020-Jan-17 13:02 154 1 gusting 4 13.9
2020-Jan-17 12:57 154 1 gusting 4 13.3
2020-Jan-17 12:52 153 1 gusting 2 13.3
2020-Jan-17 12:47 152 1 gusting 2 13.3
2020-Jan-17 12:42 152 1 gusting 2 12.8
2020-Jan-17 12:37 152 0 gusting 2 12.8
2020-Jan-17 12:32 152 0 gusting 2 12.8
2020-Jan-17 12:27 153 2 gusting 4 12.2
2020-Jan-17 12:22 298 11.7
2020-Jan-17 12:17 298 0 gusting 1 11.1
2020-Jan-17 12:12 298 0 gusting 1 11.1
2020-Jan-17 12:07 298 11.1
2020-Jan-17 12:02 298 0 gusting 1 10.6
2020-Jan-17 11:57 298 0 gusting 2 10.6
2020-Jan-17 11:52 298 10.6
2020-Jan-17 11:47 298 10.0
2020-Jan-17 11:42 298 0 gusting 1 10.0
2020-Jan-17 11:37 298 0 gusting 1 10.0
2020-Jan-17 11:32 298 0 gusting 1 9.4
2020-Jan-17 11:27 298 0 gusting 1 9.4
2020-Jan-17 11:22 298 1 gusting 2 9.4
2020-Jan-17 11:17 298 0 gusting 2 9.4
2020-Jan-17 11:12 298 9.4
2020-Jan-17 11:07 298 8.9
2020-Jan-17 11:02 298 0 gusting 1 8.9
2020-Jan-17 10:57 298 0 gusting 2 8.9
2020-Jan-17 10:52 298 0 gusting 2 8.3
2020-Jan-17 10:47 298 0 gusting 1 8.3
2020-Jan-17 10:42 298 8.3
2020-Jan-17 10:37 298 7.8
2020-Jan-17 10:32 298 7.8
2020-Jan-17 10:27 298 0 gusting 1 7.8
2020-Jan-17 10:22 298 7.2
2020-Jan-17 10:17 298 0 gusting 1 7.2
2020-Jan-17 10:12 298 1 gusting 2 7.2
2020-Jan-17 10:07 298 0 gusting 1 7.2
2020-Jan-17 10:02 298 0 gusting 2 6.7
2020-Jan-17 09:57 298 6.7
2020-Jan-17 09:52 298 6.1
2020-Jan-17 09:47 298 0 gusting 1 5.6
2020-Jan-17 09:42 298 5.0
2020-Jan-17 09:37 298 5.0
2020-Jan-17 09:32 298 5.0
2020-Jan-17 09:27 298 5.0
2020-Jan-17 09:22 298 4.4
2020-Jan-17 09:17 298 0 gusting 2 4.4
2020-Jan-17 09:12 298 1 gusting 2 4.4
2020-Jan-17 09:07 298 0 gusting 1 3.9
2020-Jan-17 09:02 298 3.9
2020-Jan-17 08:57 298 3.9
2020-Jan-17 08:52 298 3.3
2020-Jan-17 08:47 298 3.3
2020-Jan-17 08:42 298 3.3
2020-Jan-17 08:37 298 2.8
2020-Jan-17 08:32 298 0 gusting 1 2.8
2020-Jan-17 08:27 298 1 gusting 2 2.2
2020-Jan-17 08:22 298 2.2
2020-Jan-17 08:17 298 0 gusting 2 2.2
2020-Jan-17 08:12 298 2.2
2020-Jan-17 08:07 298 0 gusting 1 2.2
2020-Jan-17 08:02 295 0 gusting 2 1.7
2020-Jan-17 07:57 293 1.7
2020-Jan-17 07:52 292 0 gusting 2 1.7
2020-Jan-17 07:47 292 0 gusting 2 1.7
2020-Jan-17 07:42 292 0 gusting 1 1.1
2020-Jan-17 07:37 292 0 gusting 1 1.1
2020-Jan-17 07:32 292 0 gusting 2 1.1
2020-Jan-17 07:27 292 0 gusting 1 1.1
2020-Jan-17 07:22 292 1 gusting 2 1.1
2020-Jan-17 07:17 292 1.1
2020-Jan-17 07:12 292 0 gusting 1 1.1
2020-Jan-17 07:07 292 0 gusting 2 1.1
2020-Jan-17 07:02 292 1.1
2020-Jan-17 06:57 292 1.1
2020-Jan-17 06:52 292 0 gusting 1 1.1
2020-Jan-17 06:47 292 1.1
2020-Jan-17 06:42 292 1.1
2020-Jan-17 06:37 292 0 gusting 2 1.1
2020-Jan-17 06:32 292 1.1
2020-Jan-17 06:27 292 1.1
2020-Jan-17 06:22 292 1.1
2020-Jan-17 06:17 292 1.1
2020-Jan-17 06:12 292 0 gusting 1 1.1
2020-Jan-17 06:07 292 1.1
2020-Jan-17 06:02 292 0 gusting 1 1.1
2020-Jan-17 05:57 292 0 gusting 1 1.7
2020-Jan-17 05:52 292 0 gusting 1 1.7
2020-Jan-17 05:47 292 1.7
2020-Jan-17 05:42 292 0 gusting 0 1.7
2020-Jan-17 05:37 292 0 gusting 1 1.7
2020-Jan-17 05:32 292 1.7
2020-Jan-17 05:27 292 0 gusting 2 2.2
2020-Jan-17 05:22 292 0 gusting 2 2.2
2020-Jan-17 05:17 292 0 gusting 2 2.2
2020-Jan-17 05:12 292 1.7
2020-Jan-17 05:07 292 0 gusting 2 1.7
2020-Jan-17 05:02 292 0 gusting 2 1.7
2020-Jan-17 04:57 292 0 gusting 2 1.7
2020-Jan-17 04:52 292 0 gusting 2 1.1
2020-Jan-17 04:47 292 0 gusting 2 1.1
2020-Jan-17 04:42 292 1 gusting 2 1.1
2020-Jan-17 04:37 292 0 gusting 1 1.1
2020-Jan-17 04:32 292 1.1
2020-Jan-17 04:27 292 1.1
2020-Jan-17 04:22 292 1.1
2020-Jan-17 04:17 292 0 gusting 1 1.1
2020-Jan-17 04:12 292 0 gusting 1 0.6
2020-Jan-17 04:07 292 0.6
2020-Jan-17 04:02 292 0.6
2020-Jan-17 03:57 292 0.6
2020-Jan-17 03:52 292 0 gusting 1 1.1
2020-Jan-17 03:47 292 1.1
2020-Jan-17 03:42 292 1 gusting 2 1.1
2020-Jan-17 03:37 292 1.1
2020-Jan-17 03:32 292 1.1
2020-Jan-17 03:27 292 1.1
2020-Jan-17 03:22 292 0 gusting 2 1.1
2020-Jan-17 03:17 292 0 gusting 2 1.1
2020-Jan-17 03:12 292 1 gusting 2 1.1
2020-Jan-17 03:07 292 0 gusting 2 1.1
2020-Jan-17 03:02 292 0 gusting 1 1.1
2020-Jan-17 02:57 292 1.7
2020-Jan-17 02:52 292 1.7
2020-Jan-17 02:47 292 1.7
2020-Jan-17 02:42 292 1.7
2020-Jan-17 02:37 292 1.7
2020-Jan-17 02:32 292 1.7
2020-Jan-17 02:27 292 0 gusting 1 1.7
2020-Jan-17 02:22 292 0 gusting 2 1.7
2020-Jan-17 02:17 292 0 gusting 2 1.7
2020-Jan-17 02:12 292 0 gusting 2 1.7
2020-Jan-17 02:07 292 1 gusting 2 1.7
2020-Jan-17 02:02 292 1 gusting 2 1.7
2020-Jan-17 01:57 292 0 gusting 2 2.2
2020-Jan-17 01:52 292 2.2
2020-Jan-17 01:47 292 2.2
2020-Jan-17 01:42 292 0 gusting 1 2.2
2020-Jan-17 01:37 292 1 gusting 4 1.7
2020-Jan-17 01:32 288 0 gusting 2 1.7
2020-Jan-17 01:27 288 1 gusting 2 1.7
2020-Jan-17 01:22 288 1 gusting 2 1.7
2020-Jan-17 01:17 288 1.7
2020-Jan-17 01:12 288 1.7
2020-Jan-17 01:07 288 1 gusting 4 2.2
2020-Jan-17 01:02 288 2.2
2020-Jan-17 00:57 288 2.2
2020-Jan-17 00:52 288 2.2
2020-Jan-17 00:47 288 1 gusting 2 2.2
2020-Jan-17 00:42 288 2 gusting 2 2.2
2020-Jan-17 00:37 288 1 gusting 2 2.2
2020-Jan-17 00:32 288 1 gusting 2 2.2
2020-Jan-17 00:27 288 0 gusting 2 2.2
2020-Jan-17 00:22 287 1 gusting 2 2.2
2020-Jan-17 00:17 287 2.2
2020-Jan-17 00:12 287 0 gusting 1 2.2
2020-Jan-17 00:07 287 0 gusting 2 2.8
2020-Jan-17 00:02 287 0 gusting 1 2.8
2020-Jan-16 23:57 287 2.8
2020-Jan-16 23:52 287 0 gusting 2 2.8
2020-Jan-16 23:47 287 1 gusting 2 2.8
2020-Jan-16 23:42 287 1 gusting 2 2.8
2020-Jan-16 23:37 287 1 gusting 4 2.8
2020-Jan-16 23:32 281 1 gusting 2 2.8
2020-Jan-16 23:27 281 0 gusting 2 2.8
2020-Jan-16 23:22 281 0 gusting 2 2.8
2020-Jan-16 23:17 281 0 gusting 2 2.8
2020-Jan-16 23:12 281 2.8
2020-Jan-16 23:07 281 1 gusting 2 2.8
2020-Jan-16 23:02 281 1 gusting 2 2.8
2020-Jan-16 22:57 281 1 gusting 2 2.8
2020-Jan-16 22:52 281 2.8
2020-Jan-16 22:47 281 0 gusting 1 2.8
2020-Jan-16 22:42 281 0 gusting 2 2.8
2020-Jan-16 22:37 281 0 gusting 2 2.8
2020-Jan-16 22:32 281 0 gusting 2 2.8
2020-Jan-16 22:27 281 1 gusting 2 2.8
2020-Jan-16 22:22 281 1 gusting 2 2.8
2020-Jan-16 22:17 281 0 gusting 1 2.8
2020-Jan-16 22:12 281 1 gusting 2 2.8
2020-Jan-16 22:07 281 1 gusting 2 2.8
2020-Jan-16 22:02 281 0 gusting 2 2.8
2020-Jan-16 21:57 281 0 gusting 2 2.8
2020-Jan-16 21:52 281 1 gusting 2 2.8
2020-Jan-16 21:47 281 1 gusting 2 3.3
2020-Jan-16 21:42 281 1 gusting 2 3.3
2020-Jan-16 21:37 281 1 gusting 2 3.3
2020-Jan-16 21:32 220 1 gusting 2 3.3
2020-Jan-16 21:27 217 1 gusting 2 3.3
2020-Jan-16 21:22 217 1 gusting 2 3.3
2020-Jan-16 21:17 217 0 gusting 1 3.3
2020-Jan-16 21:12 217 0 gusting 2 3.9
2020-Jan-16 21:07 217 0 gusting 1 3.9
2020-Jan-16 21:02 217 0 gusting 1 3.9
2020-Jan-16 20:57 217 1 gusting 2 3.9
2020-Jan-16 20:52 217 1 gusting 2 3.9
2020-Jan-16 20:47 217 1 gusting 2 3.9
2020-Jan-16 20:42 217 0 gusting 1 3.9
2020-Jan-16 20:37 217 0 gusting 1 3.9
2020-Jan-16 20:32 217 0 gusting 1 3.9
2020-Jan-16 20:27 217 0 gusting 1 4.4
2020-Jan-16 20:22 217 0 gusting 1 4.4
2020-Jan-16 20:17 217 4.4
2020-Jan-16 20:12 217 0 gusting 1 4.4
2020-Jan-16 20:07 217 0 gusting 2 4.4
2020-Jan-16 20:02 217 0 gusting 2 5.0
2020-Jan-16 19:57 217 1 gusting 2 5.0
2020-Jan-16 19:52 217 1 gusting 2 5.6
2020-Jan-16 19:47 217 0 gusting 2 5.6
2020-Jan-16 19:42 217 0 gusting 1 5.6
2020-Jan-16 19:37 217 1 gusting 2 5.6
2020-Jan-16 19:32 217 0 gusting 2 5.6
2020-Jan-16 19:27 217 0 gusting 1 5.6
2020-Jan-16 19:22 217 0 gusting 1 5.6
2020-Jan-16 19:17 217 6.1
2020-Jan-16 19:12 217 0 gusting 1 6.7
2020-Jan-16 19:07 217 1 gusting 2 6.7
2020-Jan-16 19:02 217 7.2
2020-Jan-16 18:57 217 0 gusting 1 6.7
2020-Jan-16 18:52 217 0 gusting 1 7.2
2020-Jan-16 18:47 217 0 gusting 1 7.2
2020-Jan-16 18:42 217 0 gusting 2 7.2
2020-Jan-16 18:37 217 0 gusting 1 7.2
2020-Jan-16 18:32 217 0 gusting 1 7.2
2020-Jan-16 18:27 217 0 gusting 1 7.2
2020-Jan-16 18:22 217 0 gusting 1 7.2
2020-Jan-16 18:17 217 7.8
2020-Jan-16 18:12 217 7.8
2020-Jan-16 18:07 217 8.3
2020-Jan-16 18:02 217 8.3
2020-Jan-16 17:57 217 8.9
2020-Jan-16 17:52 217 8.9
2020-Jan-16 17:47 217 9.4
2020-Jan-16 17:42 217 9.4
2020-Jan-16 17:37 217 10.0
2020-Jan-16 17:32 217 10.0
2020-Jan-16 17:27 217 10.6
2020-Jan-16 17:22 217 11.1
2020-Jan-16 17:17 217 11.7
2020-Jan-16 17:12 217 12.2
2020-Jan-16 17:07 217 12.8
2020-Jan-16 17:02 217 0 gusting 1 12.8
2020-Jan-16 16:57 217 0 gusting 2 13.3
2020-Jan-16 16:52 217 0 gusting 2 13.9
2020-Jan-16 16:47 217 0 gusting 2 13.9
2020-Jan-16 16:42 217 0 gusting 2 14.4
2020-Jan-16 16:37 217 1 gusting 2 14.4
2020-Jan-16 16:32 217 0 gusting 2 14.4
2020-Jan-16 16:27 217 2 gusting 2 14.4
2020-Jan-16 16:22 218 2 gusting 4 14.4
2020-Jan-16 16:17 251 2 gusting 4 14.4
2020-Jan-16 16:12 253 2 gusting 6 14.4
2020-Jan-16 16:07 257 0 gusting 5 14.4
2020-Jan-16 16:02 240 2 gusting 4 15.0
2020-Jan-16 15:57 244 3 gusting 5 14.4
2020-Jan-16 15:52 246 2 gusting 7 14.4
2020-Jan-16 15:47 257 3 gusting 6 15.0
2020-Jan-16 15:42 268 2 gusting 5 15.0
2020-Jan-16 15:37 268 2 gusting 4 15.0
2020-Jan-16 15:32 268 3 gusting 5 15.0
2020-Jan-16 15:27 269 3 gusting 5 15.0
2020-Jan-16 15:22 290 2 gusting 5 15.0
2020-Jan-16 15:17 290 0 gusting 2 15.0
2020-Jan-16 15:12 290 1 gusting 4 15.0
2020-Jan-16 15:07 291 1 gusting 2 15.0
2020-Jan-16 15:02 292 2 gusting 4 15.0
2020-Jan-16 14:57 294 1 gusting 4 15.0
2020-Jan-16 14:52 295 4 gusting 6 15.0
2020-Jan-16 14:47 255 2 gusting 5 15.0
2020-Jan-16 14:42 250 2 gusting 4 15.0
2020-Jan-16 14:37 250 1 gusting 4 15.6
2020-Jan-16 14:32 252 1 gusting 4 15.6
2020-Jan-16 14:27 254 2 gusting 2 15.6
2020-Jan-16 14:22 256 1 gusting 2 15.6
2020-Jan-16 14:17 257 1 gusting 2 15.0
2020-Jan-16 14:12 175 0 gusting 4 15.0
2020-Jan-16 14:07 223 2 gusting 5 15.0
2020-Jan-16 14:02 230 1 gusting 4 15.0
2020-Jan-16 13:57 200 0 gusting 5 15.0
2020-Jan-16 13:52 200 2 gusting 6 15.0
2020-Jan-16 13:47 198 2 gusting 2 15.0
2020-Jan-16 13:42 196 1 gusting 2 15.0
2020-Jan-16 13:37 201 3 gusting 6 15.0
2020-Jan-16 13:32 204 1 gusting 5 15.0
2020-Jan-16 13:27 205 2 gusting 6 14.4
2020-Jan-16 13:22 220 2 gusting 5 14.4
2020-Jan-16 13:17 221 2 gusting 5 14.4
2020-Jan-16 13:12 220 1 gusting 5 14.4
2020-Jan-16 13:07 212 0 gusting 2 14.4
2020-Jan-16 13:02 211 1 gusting 4 14.4
2020-Jan-16 12:57 211 0 gusting 2 14.4
2020-Jan-16 12:52 211 0 gusting 2 14.4
2020-Jan-16 12:47 211 0 gusting 4 13.9
2020-Jan-16 12:42 211 0 gusting 2 13.9
2020-Jan-16 12:37 212 0 gusting 2 13.9
2020-Jan-16 12:32 212 0 gusting 2 13.3
2020-Jan-16 12:27 212 13.3
2020-Jan-16 12:22 212 0 gusting 2 13.3
2020-Jan-16 12:17 212 0 gusting 2 12.8
2020-Jan-16 12:12 212 12.2
2020-Jan-16 12:07 212 12.2
2020-Jan-16 12:02 212 0 gusting 2 12.2
2020-Jan-16 11:57 212 12.2
2020-Jan-16 11:52 212 12.2
2020-Jan-16 11:47 212 1 gusting 2 11.7
2020-Jan-16 11:42 212 1 gusting 2 11.7
2020-Jan-16 11:37 212 0 gusting 2 11.1
2020-Jan-16 11:32 212 11.1
2020-Jan-16 11:27 212 0 gusting 2 10.6
2020-Jan-16 11:22 212 10.6
2020-Jan-16 11:17 205 0 gusting 1 10.0
2020-Jan-16 11:12 205 0 gusting 1 10.0
2020-Jan-16 11:07 205 9.4
2020-Jan-16 11:02 205 9.4
2020-Jan-16 10:57 205 8.9
2020-Jan-16 10:52 205 0 gusting 1 8.9
2020-Jan-16 10:47 205 8.3
2020-Jan-16 10:42 205 7.8
2020-Jan-16 10:37 205 1 gusting 2 7.8
2020-Jan-16 10:32 205 0 gusting 2 7.8
2020-Jan-16 10:27 205 7.2
2020-Jan-16 10:22 205 6.7
2020-Jan-16 10:17 205 0 gusting 1 6.7
2020-Jan-16 10:12 205 6.1
2020-Jan-16 10:07 205 6.1
2020-Jan-16 10:02 205 5.6
2020-Jan-16 09:57 205 5.6
2020-Jan-16 09:52 205 5.0
2020-Jan-16 09:47 205 5.0
2020-Jan-16 09:42 205 4.4
2020-Jan-16 09:37 205 3.9
2020-Jan-16 09:32 205 3.9
2020-Jan-16 09:27 205 3.3
2020-Jan-16 09:22 205 2.8
2020-Jan-16 09:17 205 2.8
2020-Jan-16 09:12 205 2.2
2020-Jan-16 09:07 205 0 gusting 2 2.2
2020-Jan-16 09:02 205 1.7
2020-Jan-16 08:57 205 1.7
2020-Jan-16 08:52 205 1.1
2020-Jan-16 08:47 205 1.1
2020-Jan-16 08:42 205 0.6
2020-Jan-16 08:37 205 0.6
2020-Jan-16 08:32 205 0 gusting 2 -0.0
2020-Jan-16 08:27 205 1 gusting 2 -0.0
2020-Jan-16 08:22 205 -0.0
2020-Jan-16 08:17 205 0 gusting 1 -0.0
2020-Jan-16 08:12 205 -0.6
2020-Jan-16 08:07 205 -0.6
2020-Jan-16 08:02 205 -0.6
2020-Jan-16 07:57 205 -0.6
2020-Jan-16 07:52 205 -0.6
2020-Jan-16 07:47 205 -0.6
2020-Jan-16 07:42 205 0 gusting 2 -0.6
2020-Jan-16 07:37 205 -0.6
2020-Jan-16 07:32 205 0 gusting 1 -0.6
2020-Jan-16 07:27 205 0 gusting 2 -0.6
2020-Jan-16 07:22 205 1 gusting 2 -0.6
2020-Jan-16 07:17 205 0 gusting 1 -0.6
2020-Jan-16 07:12 205 -0.6
2020-Jan-16 07:07 205 -0.6
2020-Jan-16 07:02 205 -0.6
2020-Jan-16 06:57 205 -0.6
2020-Jan-16 06:52 205 -0.6
2020-Jan-16 06:47 205 -0.6
2020-Jan-16 06:42 205 -0.6
2020-Jan-16 06:37 205 -0.6
2020-Jan-16 06:32 205 -0.6
2020-Jan-16 06:27 205 -0.6
2020-Jan-16 06:22 205 -0.6
2020-Jan-16 06:17 205 -0.6
2020-Jan-16 06:12 205 0 gusting 2 -0.6
2020-Jan-16 06:07 205 1 gusting 2 -0.6
2020-Jan-16 06:02 205 1 gusting 2 -0.6
2020-Jan-16 05:57 205 0 gusting 2 -0.6
2020-Jan-16 05:52 205 0 gusting 1 -0.6
2020-Jan-16 05:47 205 -0.6
2020-Jan-16 05:42 205 -0.6
2020-Jan-16 05:37 205 -0.6
2020-Jan-16 05:32 205 0 gusting 2 -0.6
2020-Jan-16 05:27 205 0 gusting 2 -0.6
2020-Jan-16 05:22 205 0 gusting 2 -0.6
2020-Jan-16 05:17 205 0 gusting 2 -0.6
2020-Jan-16 05:12 205 1 gusting 2 -0.0
2020-Jan-16 05:07 205 0 gusting 2 -0.0
2020-Jan-16 05:02 205 0 gusting 1 -0.0
2020-Jan-16 04:57 205 0 gusting 1 -0.0
2020-Jan-16 04:52 205 -0.0
2020-Jan-16 04:47 205 -0.0
2020-Jan-16 04:42 205 -0.0
2020-Jan-16 04:37 205 -0.0
2020-Jan-16 04:32 205 -0.0
2020-Jan-16 04:27 205 -0.0
2020-Jan-16 04:22 205 -0.0
2020-Jan-16 04:17 205 0 gusting 1 -0.0
2020-Jan-16 04:12 205 0 gusting 1 -0.0
2020-Jan-16 04:07 205 -0.0
2020-Jan-16 04:02 205 -0.0
2020-Jan-16 03:57 205 -0.0
2020-Jan-16 03:52 205 -0.0
2020-Jan-16 03:47 205 0.6
2020-Jan-16 03:42 205 0.6
2020-Jan-16 03:37 205 0.6
2020-Jan-16 03:32 205 0.6
2020-Jan-16 03:27 205 0.6
2020-Jan-16 03:22 205 0.6
2020-Jan-16 03:17 205 1 gusting 2 0.6
2020-Jan-16 03:12 205 0 gusting 2 0.6
2020-Jan-16 03:07 205 0.6
2020-Jan-16 03:02 205 0 gusting 2 0.6
2020-Jan-16 02:57 205 0 gusting 1 0.6
2020-Jan-16 02:52 205 0.6
2020-Jan-16 02:47 205 0 gusting 2 0.6
2020-Jan-16 02:42 205 0.6
2020-Jan-16 02:37 205 0.6
2020-Jan-16 02:32 205 0.6
2020-Jan-16 02:27 205 0.6
2020-Jan-16 02:22 205 0.6
2020-Jan-16 02:17 205 0 gusting 2 0.6
2020-Jan-16 02:12 205 1 gusting 2 0.6
2020-Jan-16 02:07 205 0 gusting 2 0.6
2020-Jan-16 02:02 205 1 gusting 2 0.6
2020-Jan-16 01:57 205 0 gusting 2 0.6
2020-Jan-16 01:52 205 1 gusting 2 0.6
2020-Jan-16 01:47 205 0 gusting 2 0.6
2020-Jan-16 01:42 205 0.6
2020-Jan-16 01:37 205 0.6
2020-Jan-16 01:32 205 1.1
2020-Jan-16 01:27 205 1.1
2020-Jan-16 01:22 205 1.1
2020-Jan-16 01:17 205 1.1
2020-Jan-16 01:12 205 1.1
2020-Jan-16 01:07 205 1.1
2020-Jan-16 01:02 205 0 gusting 0 1.1
2020-Jan-16 00:57 205 1.1
2020-Jan-16 00:52 205 1.1
2020-Jan-16 00:47 205 1.1
2020-Jan-16 00:42 205 0 gusting 1 1.1
2020-Jan-16 00:37 205 1.1
2020-Jan-16 00:32 205 1.7
2020-Jan-16 00:27 205 1.7
2020-Jan-16 00:22 205 1.7
2020-Jan-16 00:17 205 1.7
2020-Jan-16 00:12 205 1.7
2020-Jan-16 00:07 205 0 gusting 2 1.7
2020-Jan-16 00:02 205 0 gusting 2 1.7
2020-Jan-15 23:57 205 1.7
2020-Jan-15 23:52 205 1.7
2020-Jan-15 23:47 205 1.7
2020-Jan-15 23:42 205 0 gusting 2 2.2
2020-Jan-15 23:37 205 0 gusting 2 2.2
2020-Jan-15 23:32 205 2.2
2020-Jan-15 23:27 205 1 gusting 2 2.2
2020-Jan-15 23:22 205 0 gusting 2 2.2
2020-Jan-15 23:17 205 0 gusting 2 2.2
2020-Jan-15 23:12 205 1 gusting 2 2.2
2020-Jan-15 23:02 205 2.8
2020-Jan-15 22:57 205 0 gusting 1 2.8
2020-Jan-15 22:52 205 0 gusting 2 2.8
2020-Jan-15 22:47 205 0 gusting 1 2.8
2020-Jan-15 22:42 205 1 gusting 2 2.8
2020-Jan-15 22:37 205 2.8
2020-Jan-15 22:32 205 3.3
2020-Jan-15 22:27 205 0 gusting 2 3.3
2020-Jan-15 22:22 205 1 gusting 5 3.3
2020-Jan-15 22:17 205 0 gusting 4 3.3
2020-Jan-15 22:12 206 0 gusting 4 2.8
2020-Jan-15 22:07 207 1 gusting 2 2.8
2020-Jan-15 22:02 207 0 gusting 1 2.8
2020-Jan-15 21:57 207 0 gusting 1 2.8
2020-Jan-15 21:52 207 0 gusting 2 2.8
2020-Jan-15 21:47 207 0 gusting 2 3.3
2020-Jan-15 21:42 207 1 gusting 2 3.3
2020-Jan-15 21:37 207 0 gusting 2 3.3
2020-Jan-15 21:32 207 3.3
2020-Jan-15 21:27 207 0 gusting 1 3.3
2020-Jan-15 21:22 207 3.3
2020-Jan-15 21:17 207 3.9
2020-Jan-15 21:12 207 0 gusting 1 3.9
2020-Jan-15 21:07 207 0 gusting 1 3.9
2020-Jan-15 21:02 207 0 gusting 2 3.9
2020-Jan-15 20:57 207 0 gusting 2 3.9
2020-Jan-15 20:52 207 3.9
2020-Jan-15 20:47 207 0 gusting 2 4.4
2020-Jan-15 20:42 207 1 gusting 2 4.4
2020-Jan-15 20:37 207 1 gusting 2 4.4
2020-Jan-15 20:32 205 1 gusting 2 4.4
2020-Jan-15 20:27 210 0 gusting 5 4.4
2020-Jan-15 20:22 209 4.4
2020-Jan-15 20:17 209 4.4
2020-Jan-15 20:12 209 0 gusting 2 4.4
2020-Jan-15 20:07 209 0 gusting 1 4.4
2020-Jan-15 20:02 209 4.4
2020-Jan-15 19:57 209 0 gusting 1 4.4
2020-Jan-15 19:52 209 0 gusting 2 5.0
2020-Jan-15 19:47 209 1 gusting 2 5.0
2020-Jan-15 19:42 209 0 gusting 1 5.0
2020-Jan-15 19:37 209 1 gusting 2 5.0
2020-Jan-15 19:32 209 1 gusting 2 5.0
2020-Jan-15 19:27 209 1 gusting 2 5.0
2020-Jan-15 19:22 209 1 gusting 2 5.0
2020-Jan-15 19:17 209 1 gusting 2 5.0
2020-Jan-15 19:12 209 0 gusting 2 5.6
2020-Jan-15 19:07 209 0 gusting 1 5.6
2020-Jan-15 19:02 209 5.6
2020-Jan-15 18:57 209 6.1
2020-Jan-15 18:52 209 6.1
2020-Jan-15 18:47 209 6.1
2020-Jan-15 18:42 209 0 gusting 2 6.7
2020-Jan-15 18:37 209 7.2
2020-Jan-15 18:32 209 7.2
2020-Jan-15 18:27 209 0 gusting 2 7.2
2020-Jan-15 18:22 209 1 gusting 2 6.7
2020-Jan-15 18:17 209 1 gusting 2 6.7
2020-Jan-15 18:12 209 0 gusting 1 6.7
2020-Jan-15 18:07 209 0 gusting 1 7.2
2020-Jan-15 18:02 209 7.2